Layton, Florida
Current Conditions -  °F | °C
As of 3:53 AM on Sunday 21 Dec 2014 (Local Time) from KMTH Reporting Station
Few Clouds Few Clouds  
Wind Chill: 70°   Ceiling: Unl
Heat Index: 70°   Visibility: 10mi
Dew Point: 69°   Wind: 3mph
Humidity: 97%   Direction: 60°ENE
Pressure: 30.04"   Gusts: NA
Location:  24.8241°N, 80.818°W
Report Text: KMTH 210853Z AUTO 06003KT 10SM FEW027 21/21 A3004 RMK AO2 SLP171 T02110206 55011
Loading
Personal Weather Stations






























Interactive Weather Map New forecast layout! Learn more

10-Day Weather Forecast

Advertisements
Track Severe Weather on mobile